createdAt,value
2023-02-11T00:01:08.251Z,97001.44
2023-02-11T00:03:38.871Z,96990.44
2023-02-11T00:06:10.306Z,96983.41
2023-02-11T00:08:39.002Z,96983.41
2023-02-11T00:11:07.678Z,96986.13
2023-02-11T00:13:35.644Z,96980.84
2023-02-11T00:16:08.207Z,96980.53
2023-02-11T00:18:37.628Z,96977.72
2023-02-11T00:21:09.622Z,96980.84
2023-02-11T00:23:38.293Z,96980.84
2023-02-11T00:26:13.726Z,96976.19
2023-02-11T00:28:43.954Z,96978.66
2023-02-11T00:31:12.984Z,96972.44
2023-02-11T00:33:42.673Z,96974.06
2023-02-11T00:36:14.841Z,96968.09
2023-02-11T00:38:44.921Z,96971.88
2023-02-11T00:41:13.816Z,96969.66
2023-02-11T00:43:42.505Z,96959.38
2023-02-11T00:46:11.150Z,96971.28
2023-02-11T00:48:39.206Z,96976.69
2023-02-11T00:51:09.265Z,96975.03
2023-02-11T00:53:37.881Z,96968.25
2023-02-11T00:56:06.735Z,96964.75
2023-02-11T00:58:34.800Z,96965.56
2023-02-11T01:01:02.878Z,96961.69
2023-02-11T01:03:31.008Z,96955.50
2023-02-11T01:05:58.967Z,96954.69
2023-02-11T01:08:28.340Z,96954.91
2023-02-11T01:10:58.419Z,96960.06
2023-02-11T01:13:27.587Z,96957.38
2023-02-11T01:15:55.685Z,96956.44
2023-02-11T01:18:26.277Z,96960.06
2023-02-11T01:20:55.080Z,96946.75
2023-02-11T01:23:24.547Z,96950.50
2023-02-11T01:25:54.408Z,96945.34
2023-02-11T01:28:24.311Z,96941.38
2023-02-11T01:30:54.279Z,96942.91
2023-02-11T01:33:23.410Z,96938.69
2023-02-11T01:35:51.821Z,96937.19
2023-02-11T01:38:23.551Z,96937.19
2023-02-11T01:40:57.056Z,96933.88
2023-02-11T01:43:26.967Z,96931.09
2023-02-11T01:46:00.716Z,96930.53
2023-02-11T01:48:32.329Z,96932.50
2023-02-11T01:51:05.860Z,96939.28
2023-02-11T01:53:52.769Z,96926.78
2023-02-11T01:56:40.699Z,96931.81
2023-02-11T01:59:16.324Z,96932.03
2023-02-11T02:01:47.640Z,96929.59
2023-02-11T02:04:20.088Z,96928.16
2023-02-11T02:06:53.087Z,96925.72
2023-02-11T02:09:24.668Z,96934.13
2023-02-11T02:11:54.068Z,96918.94
2023-02-11T02:14:22.170Z,96925.97
2023-02-11T02:16:50.318Z,96922.22
2023-02-11T02:19:52.512Z,96918.84
2023-02-11T02:22:54.178Z,96912.19
2023-02-11T02:25:46.769Z,96911.13
2023-02-11T02:28:36.178Z,96911.94
2023-02-11T02:31:26.065Z,96914.97
2023-02-11T02:34:01.951Z,96921.53
2023-02-11T02:36:35.546Z,96915.69
2023-02-11T02:39:10.639Z,96911.25
2023-02-11T02:41:40.445Z,96914.53
2023-02-11T02:44:09.456Z,96916.28
2023-02-11T02:46:37.915Z,96912.06
2023-02-11T02:49:14.593Z,96907.88
2023-02-11T02:52:04.205Z,96906.34
2023-02-11T02:54:58.402Z,96906.00
2023-02-11T02:57:33.939Z,96904.84
2023-02-11T03:00:12.978Z,96904.84
2023-02-11T03:02:51.725Z,96894.88
2023-02-11T03:05:27.071Z,96896.28
2023-02-11T03:08:01.415Z,96889.50
2023-02-11T03:10:32.531Z,96886.00
2023-02-11T03:13:02.693Z,96891.16
2023-02-11T03:15:36.286Z,96882.50
2023-02-11T03:18:06.748Z,96880.88
2023-02-11T03:20:38.201Z,96880.53
2023-02-11T03:23:13.941Z,96875.97
2023-02-11T03:25:46.829Z,96876.44
2023-02-11T03:28:20.491Z,96882.97
2023-02-11T03:30:54.625Z,96883.22
2023-02-11T03:33:28.534Z,96878.19
2023-02-11T03:36:01.368Z,96875.63
2023-02-11T03:38:33.552Z,96869.66
2023-02-11T03:41:05.864Z,96871.91
2023-02-11T03:43:37.006Z,96869.09
2023-02-11T03:46:06.261Z,96869.91
2023-02-11T03:48:40.111Z,96854.50
2023-02-11T03:51:12.061Z,96859.63
2023-02-11T03:53:42.650Z,96866.41
2023-02-11T03:56:14.276Z,96863.13
2023-02-11T03:58:42.300Z,96861.25
2023-02-11T04:01:10.473Z,96862.44
2023-02-11T04:03:38.464Z,96858.44
2023-02-11T04:06:07.021Z,96858.44
2023-02-11T04:08:36.681Z,96857.06
2023-02-11T04:11:04.658Z,96858.94
2023-02-11T04:13:32.656Z,96853.78
2023-02-11T04:16:00.656Z,96852.41
2023-02-11T04:18:28.709Z,96854.28
2023-02-11T04:20:56.692Z,96854.28
2023-02-11T04:23:24.660Z,96861.97
2023-02-11T04:25:54.050Z,96866.41
2023-02-11T04:28:22.061Z,96863.97
2023-02-11T04:30:50.832Z,96862.91
2023-02-11T04:33:19.048Z,96856.13
2023-02-11T04:35:47.114Z,96857.78
2023-02-11T04:38:15.176Z,96851.00
2023-02-11T04:40:43.137Z,96851.25
2023-02-11T04:43:12.465Z,96849.81
2023-02-11T04:45:40.516Z,96856.81
2023-02-11T04:48:08.503Z,96847.38
2023-02-11T04:50:36.498Z,96850.75
2023-02-11T04:53:04.559Z,96847.94
2023-02-11T04:55:32.525Z,96856.13
2023-02-11T04:58:00.541Z,96859.88
2023-02-11T05:00:29.943Z,96854.94
2023-02-11T05:02:57.888Z,96849.00
2023-02-11T05:05:25.955Z,96847.38
2023-02-11T05:07:54.066Z,96847.47
2023-02-11T05:10:22.032Z,96844.69
2023-02-11T05:12:50.237Z,96844.56
2023-02-11T05:15:18.381Z,96851.91
2023-02-11T05:17:48.155Z,96848.41
2023-02-11T05:20:17.059Z,96846.22
2023-02-11T05:22:45.141Z,96851.91
2023-02-11T05:25:13.198Z,96852.41
2023-02-11T05:27:41.166Z,96849.13
2023-02-11T05:30:10.584Z,96847.25
2023-02-11T05:32:38.782Z,96834.31
2023-02-11T05:35:09.008Z,96840.50
2023-02-11T05:37:37.331Z,96833.97
2023-02-11T05:40:06.193Z,96837.47
2023-02-11T05:42:34.200Z,96832.91
2023-02-11T05:45:02.320Z,96833.03
2023-02-11T05:47:30.555Z,96816.91
2023-02-11T05:49:58.531Z,96818.75
2023-02-11T05:52:27.885Z,96821.13
2023-02-11T05:54:55.890Z,96815.88
2023-02-11T05:57:23.868Z,96818.56
2023-02-11T05:59:51.834Z,96810.84
2023-02-11T06:02:19.837Z,96818.56
2023-02-11T06:04:48.066Z,96820.38
2023-02-11T06:07:16.150Z,96821.25
2023-02-11T06:09:45.522Z,96823.69
2023-02-11T06:12:13.463Z,96821.69
2023-02-11T06:14:41.575Z,96826.22
2023-02-11T06:17:09.583Z,96831.59
2023-02-11T06:19:37.734Z,96833.22
2023-02-11T06:22:05.728Z,96824.38
2023-02-11T06:24:58.601Z,96829.50
2023-02-11T06:27:24.030Z,96838.13
2023-02-11T06:29:52.490Z,96834.41
2023-02-11T06:32:42.283Z,96831.13
2023-02-11T06:35:11.786Z,96833.00
2023-02-11T06:37:40.239Z,96829.03
2023-02-11T06:40:08.829Z,96824.13
2023-02-11T06:42:39.252Z,96835.22
2023-02-11T06:45:09.429Z,96831.72
2023-02-11T06:47:37.794Z,96832.75
2023-02-11T06:50:06.546Z,96834.41
2023-02-11T06:52:34.874Z,96830.31
2023-02-11T06:55:02.807Z,96829.50
2023-02-11T06:57:31.473Z,96833.69
2023-02-11T07:00:00.905Z,96831.13
2023-02-11T07:02:28.963Z,96830.91
2023-02-11T07:04:56.984Z,96834.16
2023-02-11T07:07:24.938Z,96843.72
2023-02-11T07:09:52.948Z,96844.44
2023-02-11T07:12:21.160Z,96854.50
2023-02-11T07:14:49.122Z,96856.34
2023-02-11T07:17:18.471Z,96863.13
2023-02-11T07:19:46.424Z,96868.28
2023-02-11T07:22:14.399Z,96869.66
2023-02-11T07:24:42.645Z,96876.91
2023-02-11T07:27:10.618Z,96874.34
2023-02-11T07:29:38.702Z,96877.59
2023-02-11T07:32:07.230Z,96884.13
2023-02-11T07:34:36.994Z,96877.13
2023-02-11T07:37:05.011Z,96882.28
2023-02-11T07:39:33.160Z,96881.94
2023-02-11T07:42:01.184Z,96879.03
2023-02-11T07:44:29.321Z,96891.38
2023-02-11T07:46:57.321Z,96887.31
2023-02-11T07:49:25.379Z,96894.91
2023-02-11T07:51:54.753Z,96897.25
2023-02-11T07:54:22.749Z,96898.06
2023-02-11T07:56:50.819Z,96906.47
2023-02-11T07:59:18.778Z,96912.31
2023-02-11T08:01:46.893Z,96915.81
2023-02-11T08:04:14.897Z,96907.97
2023-02-11T08:06:44.289Z,96914.97
2023-02-11T08:09:16.576Z,96923.41
2023-02-11T08:11:45.355Z,96921.06
2023-02-11T08:14:13.971Z,96923.38
2023-02-11T08:16:42.852Z,96921.63
2023-02-11T08:19:14.338Z,96929.72
2023-02-11T08:21:42.615Z,96933.19
2023-02-11T08:24:11.157Z,96928.56
2023-02-11T08:26:41.062Z,96922.13
2023-02-11T08:29:11.537Z,96930.28
2023-02-11T08:31:41.385Z,96920.22
2023-02-11T08:34:11.485Z,96920.28
2023-02-11T08:36:40.418Z,96922.38
2023-02-11T08:39:19.632Z,96927.38
2023-02-11T08:41:50.716Z,96920.50
2023-02-11T08:44:18.860Z,96914.53
2023-02-11T08:46:46.978Z,96920.03
2023-02-11T08:49:15.272Z,96919.78
2023-02-11T08:51:43.764Z,96923.50
2023-02-11T08:54:12.021Z,96927.06
2023-02-11T08:56:40.698Z,96921.00
2023-02-11T08:59:13.629Z,96924.50
2023-02-11T09:01:41.786Z,96915.56
2023-02-11T09:04:11.727Z,96917.09
2023-02-11T09:06:39.959Z,96921.84
2023-02-11T09:09:11.648Z,96924.41
2023-02-11T09:11:40.707Z,96922.16
2023-02-11T09:14:16.376Z,96920.97
2023-02-11T09:16:44.496Z,96918.47
2023-02-11T09:19:12.503Z,96913.69
2023-02-11T09:21:40.456Z,96917.56
2023-02-11T09:24:08.611Z,96925.41
2023-02-11T09:26:37.948Z,96927.22
2023-02-11T09:29:06.546Z,96933.28
2023-02-11T09:31:36.337Z,96925.34
2023-02-11T09:34:06.130Z,96922.75
2023-02-11T09:36:37.409Z,96929.66
2023-02-11T09:39:07.964Z,96924.50
2023-02-11T09:41:55.963Z,96927.16
2023-02-11T09:44:26.409Z,96931.28
2023-02-11T09:46:59.377Z,96928.66
2023-02-11T09:49:35.575Z,96932.19
2023-02-11T09:52:07.974Z,96929.91
2023-02-11T09:54:42.126Z,96927.78
2023-02-11T09:57:26.574Z,96929.09
2023-02-11T09:59:56.993Z,96932.09
2023-02-11T10:02:35.488Z,96947.50
2023-02-11T10:05:34.785Z,96944.81
2023-02-11T10:08:13.643Z,96946.53
2023-02-11T10:10:53.380Z,96950.31
2023-02-11T10:13:37.591Z,96961.22
2023-02-11T10:16:19.325Z,96958.81
2023-02-11T10:19:08.675Z,96957.72
2023-02-11T10:21:46.651Z,96963.75
2023-02-11T10:24:18.153Z,96962.66
2023-02-11T10:26:46.995Z,96955.59
2023-02-11T10:29:36.635Z,96961.06
2023-02-11T10:32:16.917Z,96962.44
2023-02-11T10:34:46.323Z,96961.06
2023-02-11T10:37:15.158Z,96965.06
2023-02-11T10:39:43.404Z,96961.91
2023-02-11T10:42:13.831Z,96954.31
2023-02-11T10:44:45.322Z,96956.19
2023-02-11T10:47:20.061Z,96957.44
2023-02-11T10:49:50.058Z,96953.50
2023-02-11T10:52:24.856Z,96953.75
2023-02-11T10:55:01.472Z,96941.50
2023-02-11T10:57:34.350Z,96944.13
2023-02-11T11:00:07.676Z,96942.59
2023-02-11T11:02:44.033Z,96939.06
2023-02-11T11:05:20.888Z,96939.06
2023-02-11T11:07:55.574Z,96936.63
2023-02-11T11:10:30.033Z,96944.50
2023-02-11T11:12:58.022Z,96938.94
2023-02-11T11:15:27.711Z,96933.38
2023-02-11T11:18:21.545Z,96928.44
2023-02-11T11:20:59.801Z,96921.16
2023-02-11T11:23:29.461Z,96913.69
2023-02-11T11:26:05.381Z,96914.97
2023-02-11T11:28:38.989Z,96908.16
2023-02-11T11:31:15.816Z,96913.44
2023-02-11T11:33:45.665Z,96907.56
2023-02-11T11:36:18.100Z,96906.69
2023-02-11T11:38:50.364Z,96902.31
2023-02-11T11:41:21.547Z,96894.63
2023-02-11T11:44:01.111Z,96888.03
2023-02-11T11:46:31.986Z,96887.16
2023-02-11T11:49:20.673Z,96892.75
2023-02-11T11:51:56.209Z,96885.66
2023-02-11T11:54:28.435Z,96869.81
2023-02-11T11:57:01.776Z,96873.88
2023-02-11T11:59:30.329Z,96875.25
2023-02-11T12:02:19.521Z,96875.41
2023-02-11T12:05:02.106Z,96871.84
2023-02-11T12:07:50.385Z,96870.91
2023-02-11T12:10:33.189Z,96859.94
2023-02-11T12:13:13.130Z,96855.41
2023-02-11T12:15:50.908Z,96866.16
2023-02-11T12:18:38.636Z,96846.16
2023-02-11T12:21:23.791Z,96836.81
2023-02-11T12:24:04.980Z,96838.16
2023-02-11T12:26:41.649Z,96838.25
2023-02-11T12:29:18.884Z,96837.69
2023-02-11T12:32:04.174Z,96840.69
2023-02-11T12:34:54.860Z,96833.06
2023-02-11T12:37:37.505Z,96828.69
2023-02-11T12:40:18.892Z,96822.69
2023-02-11T12:43:14.875Z,96810.47
2023-02-11T12:45:55.519Z,96803.16
2023-02-11T12:48:49.193Z,96803.75
2023-02-11T12:51:32.020Z,96787.28
2023-02-11T12:54:16.790Z,96782.44
2023-02-11T12:56:51.932Z,96781.47
2023-02-11T12:59:32.916Z,96783.09
2023-02-11T13:02:05.158Z,96764.47
2023-02-11T13:04:38.931Z,96768.84
2023-02-11T13:07:16.453Z,96761.06
2023-02-11T13:09:50.128Z,96760.09
2023-02-11T13:12:37.783Z,96750.06
2023-02-11T13:15:08.855Z,96754.31
2023-02-11T13:17:45.110Z,96751.72
2023-02-11T13:20:27.289Z,96745.84
2023-02-11T13:23:02.877Z,96746.81
2023-02-11T13:25:37.252Z,96741.97
2023-02-11T13:28:21.910Z,96743.25
2023-02-11T13:30:57.746Z,96737.72
2023-02-11T13:33:33.952Z,96731.75
2023-02-11T13:36:25.325Z,96736.75
2023-02-11T13:39:05.707Z,96733.69
2023-02-11T13:41:41.697Z,96725.72
2023-02-11T13:44:28.596Z,96734.47
2023-02-11T13:47:02.337Z,96730.75
2023-02-11T13:49:40.464Z,96727.00
2023-02-11T13:52:22.550Z,96728.75
2023-02-11T13:54:53.032Z,96726.59
2023-02-11T13:57:40.600Z,96721.41
2023-02-11T14:00:48.600Z,96720.22
2023-02-11T14:03:48.989Z,96714.22
2023-02-11T14:06:42.870Z,96713.41
2023-02-11T14:09:37.016Z,96717.06
2023-02-11T14:12:31.603Z,96713.75
2023-02-11T14:15:03.818Z,96718.25
2023-02-11T14:17:35.095Z,96708.81
2023-02-11T14:20:26.160Z,96714.09
2023-02-11T14:22:55.608Z,96703.03
2023-02-11T14:25:26.789Z,96702.06
2023-02-11T14:27:59.268Z,96707.25
2023-02-11T14:30:47.922Z,96706.22
2023-02-11T14:33:35.522Z,96706.78
2023-02-11T14:36:15.090Z,96700.38
2023-02-11T14:38:57.291Z,96702.75
2023-02-11T14:41:27.870Z,96702.19
2023-02-11T14:43:59.237Z,96700.00
2023-02-11T14:46:30.132Z,96699.78
2023-02-11T14:49:01.335Z,96698.16
2023-02-11T14:51:32.557Z,96697.94
2023-02-11T14:54:06.029Z,96698.59
2023-02-11T14:56:34.499Z,96701.53
2023-02-11T14:59:02.901Z,96700.94
2023-02-11T15:01:33.976Z,96704.06
2023-02-11T15:04:02.966Z,96708.59
2023-02-11T15:06:33.839Z,96712.41
2023-02-11T15:09:08.406Z,96712.63
2023-02-11T15:11:41.037Z,96717.72
2023-02-11T15:14:12.361Z,96715.94
2023-02-11T15:16:45.172Z,96709.53
2023-02-11T15:19:25.877Z,96710.19
2023-02-11T15:21:54.745Z,96707.03
2023-02-11T15:24:26.713Z,96703.88
2023-02-11T15:26:59.056Z,96706.50
2023-02-11T15:29:27.714Z,96698.72
2023-02-11T15:32:14.919Z,96705.31
2023-02-11T15:34:43.120Z,96701.72
2023-02-11T15:37:15.193Z,96697.22
2023-02-11T15:39:44.571Z,96694.59
2023-02-11T15:42:25.207Z,96697.34
2023-02-11T15:45:12.974Z,96695.28
2023-02-11T15:47:42.029Z,96691.44
2023-02-11T15:50:21.723Z,96687.28
2023-02-11T15:52:50.970Z,96686.78
2023-02-11T15:55:21.867Z,96685.25
2023-02-11T15:57:55.248Z,96688.34
2023-02-11T16:00:27.312Z,96687.38
2023-02-11T16:02:55.379Z,96691.94
2023-02-11T16:05:29.831Z,96697.69
2023-02-11T16:07:58.804Z,96692.34
2023-02-11T16:10:31.017Z,96693.16
2023-02-11T16:13:19.992Z,96692.94
2023-02-11T16:15:55.941Z,96702.91
2023-02-11T16:18:38.746Z,96698.75
2023-02-11T16:21:13.550Z,96700.25
2023-02-11T16:23:43.203Z,96696.00
2023-02-11T16:26:20.867Z,96695.97
2023-02-11T16:28:49.592Z,96700.94
2023-02-11T16:31:18.214Z,96699.69
2023-02-11T16:33:46.335Z,96709.13
2023-02-11T16:36:17.182Z,96701.97
2023-02-11T16:38:45.176Z,96711.09
2023-02-11T16:41:14.681Z,96710.16
2023-02-11T16:43:42.700Z,96706.97
2023-02-11T16:46:15.280Z,96720.09
2023-02-11T16:48:43.534Z,96713.97
2023-02-11T16:51:14.254Z,96711.09
2023-02-11T16:53:42.220Z,96717.94
2023-02-11T16:56:16.780Z,96717.25
2023-02-11T16:58:45.288Z,96718.56
2023-02-11T17:01:14.273Z,96716.56
2023-02-11T17:03:43.699Z,96718.16
2023-02-11T17:06:13.545Z,96718.13
2023-02-11T17:08:42.125Z,96724.94
2023-02-11T17:11:10.095Z,96728.13
2023-02-11T17:13:39.619Z,96720.97
2023-02-11T17:16:17.035Z,96735.53
2023-02-11T17:18:45.025Z,96730.97
2023-02-11T17:21:13.437Z,96733.53
2023-02-11T17:23:41.695Z,96741.78
2023-02-11T17:26:10.279Z,96740.09
2023-02-11T17:28:39.646Z,96734.38
2023-02-11T17:31:11.121Z,96738.50
2023-02-11T17:33:39.182Z,96739.94
2023-02-11T17:36:09.096Z,96738.78
2023-02-11T17:38:38.312Z,96741.38
2023-02-11T17:41:07.025Z,96744.09
2023-02-11T17:43:35.057Z,96749.84
2023-02-11T17:46:07.507Z,96750.97
2023-02-11T17:48:35.594Z,96743.66
2023-02-11T17:51:03.588Z,96753.50
2023-02-11T17:53:31.587Z,96755.75
2023-02-11T17:55:59.667Z,96751.44
2023-02-11T17:58:27.643Z,96754.47
2023-02-11T18:00:59.639Z,96752.03
2023-02-11T18:03:29.018Z,96757.53
2023-02-11T18:06:00.955Z,96755.91
2023-02-11T18:08:28.960Z,96755.91
2023-02-11T18:10:56.944Z,96764.94
2023-02-11T18:13:24.921Z,96770.97
2023-02-11T18:15:53.263Z,96776.44
2023-02-11T18:18:21.617Z,96774.31
2023-02-11T18:20:58.501Z,96783.09
2023-02-11T18:23:27.531Z,96783.69
2023-02-11T18:25:55.537Z,96777.16
2023-02-11T18:28:23.699Z,96782.06
2023-02-11T18:30:58.590Z,96776.88
2023-02-11T18:33:27.354Z,96776.50
2023-02-11T18:35:56.331Z,96795.56
2023-02-11T18:38:26.045Z,96788.06
2023-02-11T18:40:54.008Z,96783.50
2023-02-11T18:43:21.992Z,96787.03
2023-02-11T18:45:51.763Z,96782.44
2023-02-11T18:48:20.098Z,96780.81
2023-02-11T18:50:48.080Z,96780.81
2023-02-11T18:53:16.272Z,96778.81
2023-02-11T18:55:46.277Z,96784.66
2023-02-11T18:58:15.364Z,96782.97
2023-02-11T19:00:45.572Z,96792.50
2023-02-11T19:03:13.570Z,96778.91
2023-02-11T19:05:42.452Z,96787.63
2023-02-11T19:08:10.752Z,96799.06
2023-02-11T19:10:41.736Z,96800.19
2023-02-11T19:13:11.332Z,96796.50
2023-02-11T19:15:42.237Z,96803.91
2023-02-11T19:18:10.593Z,96799.69
2023-02-11T19:20:40.144Z,96804.84
2023-02-11T19:23:08.250Z,96801.31
2023-02-11T19:25:36.223Z,96799.69
2023-02-11T19:28:04.368Z,96795.84
2023-02-11T19:30:33.799Z,96806.19
2023-02-11T19:33:01.868Z,96804.28
2023-02-11T19:35:29.830Z,96804.56
2023-02-11T19:37:57.774Z,96797.75
2023-02-11T19:40:25.725Z,96800.25
2023-02-11T19:42:53.697Z,96801.75
2023-02-11T19:45:21.657Z,96803.00
2023-02-11T19:47:55.381Z,96804.91
2023-02-11T19:50:23.622Z,96803.59
2023-02-11T19:52:51.601Z,96799.66
2023-02-11T19:55:19.989Z,96797.06
2023-02-11T19:57:47.994Z,96807.41
2023-02-11T20:00:16.729Z,96802.53
2023-02-11T20:02:44.800Z,96806.84
2023-02-11T20:05:14.160Z,96800.63
2023-02-11T20:07:42.104Z,96800.63
2023-02-11T20:10:11.199Z,96800.03
2023-02-11T20:12:39.423Z,96802.25
2023-02-11T20:15:07.905Z,96801.44
2023-02-11T20:17:35.878Z,96804.16
2023-02-11T20:20:04.087Z,96804.16
2023-02-11T20:22:33.424Z,96803.59
2023-02-11T20:25:01.412Z,96803.06
2023-02-11T20:27:29.501Z,96806.59
2023-02-11T20:29:57.591Z,96796.84
2023-02-11T20:32:25.537Z,96798.22
2023-02-11T20:34:53.562Z,96806.66
2023-02-11T20:37:21.526Z,96798.78
2023-02-11T20:39:50.997Z,96792.28
2023-02-11T20:42:18.972Z,96796.06
2023-02-11T20:44:46.914Z,96790.22
2023-02-11T20:47:15.888Z,96786.69
2023-02-11T20:49:43.888Z,96781.53
2023-02-11T20:52:11.900Z,96789.56
2023-02-11T20:54:39.887Z,96781.13
2023-02-11T20:57:09.213Z,96781.13
2023-02-11T20:59:37.175Z,96778.16
2023-02-11T21:02:05.665Z,96775.72
2023-02-11T21:04:33.788Z,96778.28
2023-02-11T21:07:03.179Z,96766.88
2023-02-11T21:09:33.258Z,96768.66
2023-02-11T21:12:04.193Z,96776.53
2023-02-11T21:14:34.051Z,96767.56
2023-02-11T21:17:02.393Z,96777.34
2023-02-11T21:19:30.362Z,96783.88
2023-02-11T21:22:00.684Z,96782.50
2023-02-11T21:24:30.757Z,96778.97
2023-02-11T21:26:59.807Z,96773.94
2023-02-11T21:29:27.887Z,96775.19
2023-02-11T21:31:57.302Z,96781.31
2023-02-11T21:34:25.420Z,96780.63
2023-02-11T21:36:53.438Z,96784.41
2023-02-11T21:39:21.545Z,96776.28
2023-02-11T21:41:49.697Z,96782.25
2023-02-11T21:44:17.892Z,96779.53
2023-02-11T21:46:46.082Z,96788.22
2023-02-11T21:49:15.662Z,96782.38
2023-02-11T21:51:43.776Z,96776.94
2023-02-11T21:54:12.282Z,96788.22
2023-02-11T21:56:40.657Z,96781.72
2023-02-11T21:59:08.619Z,96788.50
2023-02-11T22:01:36.920Z,96786.59
2023-02-11T22:04:05.461Z,96788.50
2023-02-11T22:06:35.542Z,96786.72
2023-02-11T22:09:08.536Z,96794.63
2023-02-11T22:11:36.988Z,96795.56
2023-02-11T22:14:05.298Z,96795.84
2023-02-11T22:16:33.963Z,96789.34
2023-02-11T22:19:03.423Z,96794.22
2023-02-11T22:21:31.587Z,96792.88
2023-02-11T22:24:01.003Z,96783.75
2023-02-11T22:26:29.580Z,96788.25
2023-02-11T22:28:57.863Z,96786.03
2023-02-11T22:31:29.071Z,96788.22
2023-02-11T22:33:57.245Z,96784.69
2023-02-11T22:36:27.225Z,96794.47
2023-02-11T22:38:55.483Z,96787.81
2023-02-11T22:41:24.962Z,96789.28
2023-02-11T22:43:53.139Z,96792.28
2023-02-11T22:46:21.506Z,96792.00
2023-02-11T22:48:50.457Z,96781.41
2023-02-11T22:51:20.497Z,96788.47
2023-02-11T22:53:52.940Z,96794.19
2023-02-11T22:56:21.990Z,96787.41
2023-02-11T22:58:53.304Z,96788.34
2023-02-11T23:01:21.462Z,96793.34
2023-02-11T23:03:49.530Z,96797.94
2023-02-11T23:06:17.975Z,96791.28
2023-02-11T23:08:46.087Z,96793.59
2023-02-11T23:11:17.163Z,96807.94
2023-02-11T23:13:46.394Z,96794.91
2023-02-11T23:16:18.232Z,96800.34
2023-02-11T23:18:47.430Z,96801.75
2023-02-11T23:21:17.172Z,96806.63
2023-02-11T23:23:46.325Z,96804.31
2023-02-11T23:26:16.821Z,96800.06
2023-02-11T23:28:46.124Z,96805.00
2023-02-11T23:31:18.863Z,96810.28
2023-02-11T23:33:48.065Z,96813.69
2023-02-11T23:36:17.021Z,96803.38
2023-02-11T23:38:45.479Z,96805.81
2023-02-11T23:41:14.612Z,96802.84
2023-02-11T23:43:42.824Z,96799.31
2023-02-11T23:46:11.695Z,96802.03
2023-02-11T23:48:41.425Z,96799.56
2023-02-11T23:51:10.669Z,96805.00
2023-02-11T23:53:39.016Z,96799.84
2023-02-11T23:56:08.748Z,96803.09
2023-02-11T23:58:36.804Z,96801.75
